Kansas City, Missouri
Traffic Map
Current Weather Conditions
Kansas City, Missouri
Clear
Clear
91°
Feels Like: 95°
Wind Chill: 91° Ceiling: Unl
Heat Index: 95° Visibility: 10mi
Dew Point: 68° Wind: 6mph
Humidity: 47% Direction: 310° (NW)
Pressure: 30.07in Gusts: 0mph
Raw Report DataKMKC 312054Z 31005KT 10SM CLR 33/20 A3007 RMK AO2 SLP174 T03280200 58019
Traffic Incident Summary
Active as of:
Severity:
Category:
InformationThere was an issue retrieving the traffic information for this location. Please try a different location or try again shortly.
Advertisements
Track Severe Weather on mobile